createdAt,value
2018-02-19T00:01:15.212Z,98771.06
2018-02-19T00:03:43.478Z,98767.86
2018-02-19T00:06:11.760Z,98768.32
2018-02-19T00:08:40.031Z,98767.44
2018-02-19T00:11:08.318Z,98762.64
2018-02-19T00:13:36.588Z,98764.76
2018-02-19T00:16:04.848Z,98758.23
2018-02-19T00:18:33.139Z,98757.17
2018-02-19T00:21:01.415Z,98756.38
2018-02-19T00:23:29.699Z,98751.87
2018-02-19T00:25:57.952Z,98750.55
2018-02-19T00:28:26.222Z,98752.44
2018-02-19T00:30:54.507Z,98742.25
2018-02-19T00:33:22.785Z,98738.50
2018-02-19T00:35:51.126Z,98732.30
2018-02-19T00:38:19.386Z,98730.94
2018-02-19T00:40:48.427Z,98732.34
2018-02-19T00:43:16.749Z,98728.80
2018-02-19T00:45:45.780Z,98729.08
2018-02-19T00:48:14.066Z,98724.35
2018-02-19T00:50:42.326Z,98719.34
2018-02-19T00:53:10.595Z,98723.78
2018-02-19T00:55:38.869Z,98715.74
2018-02-19T00:58:07.147Z,98721.23
2018-02-19T01:00:35.419Z,98718.41
2018-02-19T01:03:03.696Z,98723.36
2018-02-19T01:05:32.710Z,98718.84
2018-02-19T01:08:00.991Z,98713.78
2018-02-19T01:10:29.248Z,98704.95
2018-02-19T01:12:57.522Z,98709.33
2018-02-19T01:15:25.790Z,98712.09
2018-02-19T01:17:54.061Z,98710.55
2018-02-19T01:20:23.106Z,98700.95
2018-02-19T01:22:51.375Z,98700.16
2018-02-19T01:25:19.650Z,98692.64
2018-02-19T01:27:47.932Z,98695.41
2018-02-19T01:30:16.216Z,98698.48
2018-02-19T01:32:44.498Z,98693.26
2018-02-19T01:35:12.767Z,98688.67
2018-02-19T01:37:41.043Z,98677.58
2018-02-19T01:40:09.323Z,98674.07
2018-02-19T01:42:37.599Z,98671.83
2018-02-19T01:45:05.895Z,98669.02
2018-02-19T01:47:34.172Z,98671.41
2018-02-19T01:50:18.047Z,98656.83
2018-02-19T01:52:46.310Z,98653.02
2018-02-19T01:55:14.595Z,98659.37
2018-02-19T01:57:43.622Z,98651.13
2018-02-19T02:00:11.888Z,98653.77
2018-02-19T02:02:40.166Z,98649.90
2018-02-19T02:05:08.434Z,98650.17
2018-02-19T02:07:36.715Z,98644.97
2018-02-19T02:10:04.976Z,98639.03
2018-02-19T02:12:33.238Z,98636.42
2018-02-19T02:15:01.604Z,98632.09
2018-02-19T02:17:30.627Z,98633.73
2018-02-19T02:19:58.923Z,98627.92
2018-02-19T02:22:27.187Z,98631.83
2018-02-19T02:24:55.459Z,98627.30
2018-02-19T02:27:23.731Z,98624.68
2018-02-19T02:29:51.987Z,98624.24
2018-02-19T02:32:21.035Z,98614.21
2018-02-19T02:34:49.313Z,98613.89
2018-02-19T02:37:17.568Z,98616.36
2018-02-19T02:39:45.848Z,98612.16
2018-02-19T02:42:14.111Z,98604.20
2018-02-19T02:44:42.390Z,98603.86
2018-02-19T02:47:10.664Z,98599.13
2018-02-19T02:49:38.952Z,98598.50
2018-02-19T02:52:07.228Z,98597.16
2018-02-19T02:54:35.493Z,98589.95
2018-02-19T02:57:03.763Z,98592.53
2018-02-19T02:59:32.033Z,98582.66
2018-02-19T03:02:00.291Z,98591.67
2018-02-19T03:04:28.578Z,98585.10
2018-02-19T03:06:56.834Z,98585.56
2018-02-19T03:09:25.939Z,98587.89
2018-02-19T03:11:54.967Z,98591.19
2018-02-19T03:14:23.235Z,98588.91
2018-02-19T03:16:51.511Z,98587.08
2018-02-19T03:19:19.775Z,98583.05
2018-02-19T03:21:48.051Z,98586.91
2018-02-19T03:24:16.316Z,98587.91
2018-02-19T03:26:44.603Z,98592.49
2018-02-19T03:29:12.935Z,98590.95
2018-02-19T03:31:41.200Z,98590.62
2018-02-19T03:34:09.522Z,98583.33
2018-02-19T03:36:37.775Z,98583.23
2018-02-19T03:39:06.847Z,98576.56
2018-02-19T03:41:35.126Z,98578.17
2018-02-19T03:44:03.387Z,98577.45
2018-02-19T03:46:31.673Z,98577.64
2018-02-19T03:48:59.935Z,98577.73
2018-02-19T03:51:28.208Z,98576.84
2018-02-19T03:53:56.485Z,98568.25
2018-02-19T03:56:25.526Z,98566.50
2018-02-19T03:58:54.579Z,98557.42
2018-02-19T04:01:22.848Z,98553.66
2018-02-19T04:03:51.121Z,98549.36
2018-02-19T04:06:19.438Z,98550.68
2018-02-19T04:08:48.470Z,98553.92
2018-02-19T04:11:16.751Z,98550.45
2018-02-19T04:13:45.005Z,98544.07
2018-02-19T04:16:13.295Z,98547.08
2018-02-19T04:18:41.563Z,98541.97
2018-02-19T04:21:09.825Z,98549.63
2018-02-19T04:23:38.969Z,98549.38
2018-02-19T04:26:07.251Z,98542.97
2018-02-19T04:28:35.516Z,98542.57
2018-02-19T04:31:04.562Z,98544.37
2018-02-19T04:33:33.597Z,98546.89
2018-02-19T04:36:01.903Z,98542.53
2018-02-19T04:38:30.165Z,98549.30
2018-02-19T04:40:58.419Z,98539.11
2018-02-19T04:43:26.751Z,98533.73
2018-02-19T04:45:57.858Z,98526.64
2018-02-19T04:48:26.184Z,98521.87
2018-02-19T04:50:54.422Z,98520.06
2018-02-19T04:53:23.467Z,98519.53
2018-02-19T04:55:51.746Z,98515.28
2018-02-19T04:58:20.007Z,98516.99
2018-02-19T05:00:48.298Z,98513.23
2018-02-19T05:03:16.558Z,98515.21
2018-02-19T05:05:44.859Z,98518.02
2018-02-19T05:08:13.115Z,98520.08
2018-02-19T05:10:41.375Z,98511.16
2018-02-19T05:13:10.436Z,98518.58
2018-02-19T05:15:38.703Z,98513.06
2018-02-19T05:18:06.996Z,98514.02
2018-02-19T05:20:35.252Z,98513.09
2018-02-19T05:23:03.519Z,98511.47
2018-02-19T05:25:31.794Z,98510.98
2018-02-19T05:28:00.118Z,98506.29
2018-02-19T05:30:28.404Z,98511.65
2018-02-19T05:32:57.431Z,98516.52
2018-02-19T05:35:25.690Z,98513.88
2018-02-19T05:37:53.987Z,98519.44
2018-02-19T05:40:22.274Z,98507.61
2018-02-19T05:42:50.556Z,98511.58
2018-02-19T05:45:18.810Z,98508.80
2018-02-19T05:47:47.071Z,98510.11
2018-02-19T05:50:15.343Z,98511.84
2018-02-19T05:52:43.603Z,98509.40
2018-02-19T05:55:12.651Z,98503.55
2018-02-19T05:57:40.918Z,98497.55
2018-02-19T06:00:09.203Z,98503.02
2018-02-19T06:02:37.474Z,98502.20
2018-02-19T06:05:05.735Z,98508.24
2018-02-19T06:07:34.009Z,98509.66
2018-02-19T06:10:02.274Z,98510.73
2018-02-19T06:12:30.565Z,98515.20
2018-02-19T06:14:59.575Z,98509.62
2018-02-19T06:17:27.899Z,98510.00
2018-02-19T06:19:56.941Z,98511.06
2018-02-19T06:22:25.220Z,98512.70
2018-02-19T06:24:54.251Z,98511.34
2018-02-19T06:27:22.528Z,98514.02
2018-02-19T06:29:51.575Z,98516.80
2018-02-19T06:32:19.858Z,98512.38
2018-02-19T06:34:48.127Z,98506.80
2018-02-19T06:37:16.402Z,98513.23
2018-02-19T06:39:44.675Z,98510.03
2018-02-19T06:42:12.937Z,98504.37
2018-02-19T06:44:41.275Z,98510.84
2018-02-19T06:47:09.705Z,98509.20
2018-02-19T06:49:38.010Z,98512.76
2018-02-19T06:52:06.302Z,98508.28
2018-02-19T06:54:34.566Z,98505.95
2018-02-19T06:57:02.907Z,98508.59
2018-02-19T06:59:31.166Z,98501.66
2018-02-19T07:01:59.443Z,98503.16
2018-02-19T07:04:27.699Z,98509.20
2018-02-19T07:06:56.748Z,98502.14
2018-02-19T07:09:25.267Z,98500.81
2018-02-19T07:11:53.531Z,98495.48
2018-02-19T07:14:21.810Z,98497.77
2018-02-19T07:16:50.133Z,98493.75
2018-02-19T07:19:18.412Z,98496.77
2018-02-19T07:21:46.683Z,98493.20
2018-02-19T07:24:14.990Z,98494.23
2018-02-19T07:26:43.279Z,98492.86
2018-02-19T07:29:11.565Z,98482.97
2018-02-19T07:31:39.836Z,98480.11
2018-02-19T07:34:08.148Z,98475.20
2018-02-19T07:36:37.179Z,98482.56
2018-02-19T07:39:05.452Z,98489.70
2018-02-19T07:41:33.699Z,98489.36
2018-02-19T07:44:01.967Z,98481.30
2018-02-19T07:46:31.032Z,98476.81
2018-02-19T07:48:59.304Z,98481.00
2018-02-19T07:51:27.569Z,98472.05
2018-02-19T07:53:55.834Z,98475.34
2018-02-19T07:56:25.212Z,98471.06
2018-02-19T07:58:53.484Z,98469.36
2018-02-19T08:01:21.739Z,98472.88
2018-02-19T08:03:50.768Z,98471.56
2018-02-19T08:06:19.032Z,98474.89
2018-02-19T08:08:47.368Z,98476.86
2018-02-19T08:11:15.630Z,98484.05
2018-02-19T08:13:43.902Z,98475.72
2018-02-19T08:16:12.171Z,98468.24
2018-02-19T08:18:40.430Z,98464.60
2018-02-19T08:21:08.687Z,98459.46
2018-02-19T08:23:36.984Z,98449.00
2018-02-19T08:26:05.258Z,98442.49
2018-02-19T08:28:33.535Z,98447.29
2018-02-19T08:31:01.794Z,98448.55
2018-02-19T08:33:30.054Z,98450.81
2018-02-19T08:35:58.326Z,98458.61
2018-02-19T08:38:26.606Z,98457.25
2018-02-19T08:40:54.886Z,98443.31
2018-02-19T08:43:23.154Z,98449.58
2018-02-19T08:45:51.408Z,98452.77
2018-02-19T08:48:19.695Z,98449.03
2018-02-19T08:50:48.719Z,98447.13
2018-02-19T08:53:16.998Z,98445.48
2018-02-19T08:55:45.247Z,98433.38
2018-02-19T08:58:14.268Z,98432.87
2018-02-19T09:00:42.534Z,98437.08
2018-02-19T09:03:10.783Z,98430.59
2018-02-19T09:05:39.964Z,98428.67
2018-02-19T09:08:08.219Z,98430.59
2018-02-19T09:10:36.463Z,98430.77
2018-02-19T09:13:04.750Z,98426.24
2018-02-19T09:15:33.976Z,98421.72
2018-02-19T09:18:02.240Z,98422.28
2018-02-19T09:20:30.493Z,98416.84
2018-02-19T09:22:58.751Z,98409.22
2018-02-19T09:25:27.018Z,98412.56
2018-02-19T09:27:56.035Z,98402.00
2018-02-19T09:30:24.306Z,98402.20
2018-02-19T09:32:52.584Z,98406.84
2018-02-19T09:35:20.844Z,98409.37
2018-02-19T09:37:49.116Z,98414.63
2018-02-19T09:40:17.407Z,98413.28
2018-02-19T09:42:45.676Z,98415.09
2018-02-19T09:45:13.970Z,98410.50
2018-02-19T09:47:42.227Z,98401.41
2018-02-19T09:50:10.483Z,98394.18
2018-02-19T09:52:39.501Z,98397.04
2018-02-19T09:55:07.766Z,98396.41
2018-02-19T09:57:36.777Z,98396.03
2018-02-19T10:00:05.039Z,98386.48
2018-02-19T10:02:33.307Z,98389.97
2018-02-19T10:05:01.563Z,98386.63
2018-02-19T10:07:29.830Z,98385.47
2018-02-19T10:09:58.145Z,98383.25
2018-02-19T10:12:26.358Z,98380.92
2018-02-19T10:14:54.623Z,98377.45
2018-02-19T10:17:22.881Z,98375.88
2018-02-19T10:19:51.163Z,98380.69
2018-02-19T10:22:19.410Z,98375.88
2018-02-19T10:24:47.687Z,98372.80
2018-02-19T10:27:15.959Z,98360.73
2018-02-19T10:29:45.018Z,98370.01
2018-02-19T10:32:13.247Z,98373.42
2018-02-19T10:34:41.543Z,98367.02
2018-02-19T10:37:09.795Z,98364.13
2018-02-19T10:39:38.111Z,98358.43
2018-02-19T10:42:06.316Z,98355.69
2018-02-19T10:44:34.631Z,98356.36
2018-02-19T10:47:02.891Z,98356.58
2018-02-19T10:49:31.162Z,98357.25
2018-02-19T10:51:59.431Z,98361.11
2018-02-19T10:54:28.453Z,98365.89
2018-02-19T10:56:56.714Z,98365.67
2018-02-19T10:59:24.966Z,98367.71
2018-02-19T11:01:53.988Z,98370.66
2018-02-19T11:04:22.251Z,98370.03
2018-02-19T11:06:50.520Z,98363.89
2018-02-19T11:09:19.546Z,98372.19
2018-02-19T11:11:47.807Z,98368.45
2018-02-19T11:14:16.060Z,98363.75
2018-02-19T11:16:45.091Z,98357.16
2018-02-19T11:19:13.351Z,98355.61
2018-02-19T11:21:41.608Z,98352.54
2018-02-19T11:24:10.651Z,98351.86
2018-02-19T11:26:38.890Z,98353.14
2018-02-19T11:29:07.924Z,98350.86
2018-02-19T11:31:36.200Z,98343.27
2018-02-19T11:34:04.467Z,98343.44
2018-02-19T11:36:32.711Z,98347.67
2018-02-19T11:39:00.975Z,98340.97
2018-02-19T11:41:31.242Z,98337.70
2018-02-19T11:43:59.490Z,98323.83
2018-02-19T11:46:27.755Z,98319.67
2018-02-19T11:48:56.771Z,98309.50
2018-02-19T11:51:25.016Z,98308.19
2018-02-19T11:53:54.047Z,98301.17
2018-02-19T11:56:22.310Z,98299.98
2018-02-19T11:58:50.643Z,98302.76
2018-02-19T12:01:18.895Z,98299.13
2018-02-19T12:03:47.144Z,98295.51
2018-02-19T12:06:15.443Z,98293.78
2018-02-19T12:08:43.723Z,98288.95
2018-02-19T12:11:11.983Z,98289.58
2018-02-19T12:13:40.261Z,98283.33
2018-02-19T12:16:08.534Z,98279.97
2018-02-19T12:18:36.789Z,98288.84
2018-02-19T12:21:05.067Z,98274.62
2018-02-19T12:23:33.319Z,98272.16
2018-02-19T12:26:02.383Z,98266.89
2018-02-19T12:28:30.646Z,98264.73
2018-02-19T12:30:59.663Z,98270.05
2018-02-19T12:33:27.912Z,98261.77
2018-02-19T12:35:56.189Z,98256.55
2018-02-19T12:38:24.440Z,98251.88
2018-02-19T12:40:52.699Z,98251.27
2018-02-19T12:43:20.960Z,98248.72
2018-02-19T12:45:49.972Z,98253.84
2018-02-19T12:48:18.235Z,98259.84
2018-02-19T12:50:47.278Z,98253.34
2018-02-19T12:53:15.553Z,98256.63
2018-02-19T12:55:43.799Z,98253.68
2018-02-19T12:58:12.057Z,98241.82
2018-02-19T13:00:41.134Z,98244.05
2018-02-19T13:03:10.151Z,98229.58
2018-02-19T13:05:38.411Z,98230.52
2018-02-19T13:08:07.422Z,98228.88
2018-02-19T13:10:35.774Z,98231.34
2018-02-19T13:13:04.029Z,98234.42
2018-02-19T13:15:32.283Z,98222.37
2018-02-19T13:18:00.560Z,98220.16
2018-02-19T13:20:28.804Z,98218.84
2018-02-19T13:22:57.055Z,98214.36
2018-02-19T13:25:26.092Z,98214.86
2018-02-19T13:27:54.347Z,98212.12
2018-02-19T13:30:22.608Z,98210.72
2018-02-19T13:32:51.634Z,98205.92
2018-02-19T13:35:19.878Z,98200.05
2018-02-19T13:37:48.921Z,98197.94
2018-02-19T13:40:17.191Z,98204.06
2018-02-19T13:42:45.458Z,98194.61
2018-02-19T13:45:13.702Z,98189.16
2018-02-19T13:47:42.721Z,98189.66
2018-02-19T13:50:10.974Z,98190.77
2018-02-19T13:52:39.292Z,98181.12
2018-02-19T13:55:07.555Z,98179.97
2018-02-19T13:57:35.826Z,98178.81
2018-02-19T14:00:04.070Z,98174.16
2018-02-19T14:02:33.119Z,98171.56
2018-02-19T14:05:01.367Z,98167.16
2018-02-19T14:07:29.649Z,98163.25
2018-02-19T14:09:57.902Z,98169.67
2018-02-19T14:12:26.155Z,98166.98
2018-02-19T14:14:55.191Z,98167.19
2018-02-19T14:17:23.450Z,98157.63
2018-02-19T14:19:51.728Z,98155.61
2018-02-19T14:22:19.975Z,98156.58
2018-02-19T14:24:48.991Z,98159.81
2018-02-19T14:27:17.275Z,98160.38
2018-02-19T14:29:45.547Z,98167.86
2018-02-19T14:32:13.818Z,98161.34
2018-02-19T14:34:42.084Z,98160.47
2018-02-19T14:37:11.099Z,98155.09
2018-02-19T14:39:39.365Z,98149.53
2018-02-19T14:42:07.615Z,98150.02
2018-02-19T14:44:36.648Z,98158.75
2018-02-19T14:47:04.899Z,98155.39
2018-02-19T14:49:33.915Z,98153.77
2018-02-19T14:52:02.189Z,98148.05
2018-02-19T14:54:30.458Z,98145.88
2018-02-19T14:56:58.728Z,98149.01
2018-02-19T14:59:26.983Z,98144.45
2018-02-19T15:01:56.091Z,98149.59
2018-02-19T15:04:25.137Z,98149.03
2018-02-19T15:06:53.379Z,98149.86
2018-02-19T15:09:21.644Z,98148.45
2018-02-19T15:11:49.970Z,98148.32
2018-02-19T15:14:18.223Z,98140.56
2018-02-19T15:16:46.477Z,98143.09
2018-02-19T15:19:14.723Z,98142.84
2018-02-19T15:21:43.774Z,98138.06
2018-02-19T15:24:12.031Z,98142.93
2018-02-19T15:26:40.287Z,98139.50
2018-02-19T15:29:08.547Z,98135.50
2018-02-19T15:31:37.634Z,98133.37
2018-02-19T15:34:05.882Z,98131.45
2018-02-19T15:36:34.130Z,98129.36
2018-02-19T15:39:02.403Z,98123.44
2018-02-19T15:41:30.665Z,98126.30
2018-02-19T15:43:59.695Z,98127.67
2018-02-19T15:46:27.958Z,98125.31
2018-02-19T15:48:56.210Z,98121.66
2018-02-19T15:51:24.508Z,98130.86
2018-02-19T15:53:52.783Z,98121.90
2018-02-19T15:56:21.046Z,98128.36
2018-02-19T15:58:49.303Z,98126.30
2018-02-19T16:01:18.328Z,98131.04
2018-02-19T16:03:46.599Z,98129.19
2018-02-19T16:06:14.866Z,98126.88
2018-02-19T16:08:43.120Z,98127.34
2018-02-19T16:11:12.188Z,98123.35
2018-02-19T16:13:40.447Z,98122.70
2018-02-19T16:16:08.688Z,98128.34
2018-02-19T16:18:36.958Z,98124.55
2018-02-19T16:21:05.210Z,98131.69
2018-02-19T16:23:34.241Z,98133.63
2018-02-19T16:26:02.492Z,98134.61
2018-02-19T16:28:30.756Z,98136.09
2018-02-19T16:30:59.784Z,98138.77
2018-02-19T16:33:28.135Z,98134.89
2018-02-19T16:35:57.154Z,98131.84
2018-02-19T16:38:25.492Z,98129.67
2018-02-19T16:40:54.510Z,98132.91
2018-02-19T16:43:22.780Z,98136.68
2018-02-19T16:45:51.074Z,98126.83
2018-02-19T16:48:19.354Z,98129.22
2018-02-19T16:50:47.702Z,98125.23
2018-02-19T16:53:16.054Z,98126.67
2018-02-19T16:55:44.518Z,98133.76
2018-02-19T16:58:12.851Z,98123.88
2018-02-19T17:00:41.122Z,98122.92
2018-02-19T17:03:10.172Z,98124.75
2018-02-19T17:05:38.485Z,98125.36
2018-02-19T17:08:07.563Z,98124.38
2018-02-19T17:10:35.945Z,98124.16
2018-02-19T17:13:04.987Z,98129.97
2018-02-19T17:15:33.242Z,98125.47
2018-02-19T17:18:01.512Z,98121.89
2018-02-19T17:20:30.547Z,98120.33
2018-02-19T17:22:58.838Z,98116.88
2018-02-19T17:25:27.225Z,98121.08
2018-02-19T17:27:55.512Z,98121.83
2018-02-19T17:30:25.512Z,98121.03
2018-02-19T17:32:54.106Z,98129.48
2018-02-19T17:35:23.258Z,98125.14
2018-02-19T17:37:53.088Z,98124.50
2018-02-19T17:40:22.067Z,98139.81
2018-02-19T17:42:53.183Z,98136.05
2018-02-19T17:45:21.968Z,98134.41
2018-02-19T17:47:51.188Z,98125.41
2018-02-19T17:50:21.143Z,98142.06
2018-02-19T17:52:50.261Z,98144.89
2018-02-19T17:55:19.171Z,98143.69
2018-02-19T17:57:48.724Z,98140.58
2018-02-19T18:00:18.748Z,98140.08
2018-02-19T18:02:47.871Z,98145.25
2018-02-19T18:05:17.143Z,98141.92
2018-02-19T18:07:46.159Z,98141.20
2018-02-19T18:10:15.378Z,98137.08
2018-02-19T18:12:44.720Z,98133.47
2018-02-19T18:15:16.055Z,98138.88
2018-02-19T18:17:46.816Z,98135.08
2018-02-19T18:20:16.432Z,98135.77
2018-02-19T18:22:47.997Z,98120.63
2018-02-19T18:25:17.283Z,98123.75
2018-02-19T18:27:46.608Z,98117.52
2018-02-19T18:30:17.544Z,98119.50
2018-02-19T18:32:46.862Z,98124.16
2018-02-19T18:35:18.427Z,98122.28
2018-02-19T18:37:49.500Z,98116.52
2018-02-19T18:40:18.853Z,98112.34
2018-02-19T18:42:50.204Z,98113.23
2018-02-19T18:45:20.397Z,98107.76
2018-02-19T18:47:49.840Z,98105.56
2018-02-19T18:50:20.257Z,98108.84
2018-02-19T18:52:50.394Z,98118.41
2018-02-19T18:55:19.752Z,98126.19
2018-02-19T18:57:49.028Z,98114.41
2018-02-19T19:00:18.340Z,98120.56
2018-02-19T19:02:47.826Z,98119.84
2018-02-19T19:05:17.127Z,98119.81
2018-02-19T19:08:04.027Z,98128.48
2018-02-19T19:10:50.843Z,98133.52
2018-02-19T19:13:20.201Z,98122.66
2018-02-19T19:15:50.442Z,98121.56
2018-02-19T19:18:19.817Z,98119.52
2018-02-19T19:20:49.141Z,98123.14
2018-02-19T19:23:18.434Z,98120.11
2018-02-19T19:25:48.570Z,98120.95
2018-02-19T19:28:18.765Z,98119.94
2018-02-19T19:30:48.929Z,98118.94
2018-02-19T19:33:19.201Z,98118.36
2018-02-19T19:35:48.613Z,98115.00
2018-02-19T19:38:18.698Z,98116.89
2018-02-19T19:40:48.121Z,98117.94
2018-02-19T19:43:17.635Z,98116.02
2018-02-19T19:45:47.819Z,98118.37
2018-02-19T19:48:17.649Z,98126.05
2018-02-19T19:50:47.227Z,98130.22
2018-02-19T19:53:16.633Z,98126.81
2018-02-19T19:55:46.045Z,98126.08
2018-02-19T19:58:16.274Z,98123.89
2018-02-19T20:00:45.766Z,98124.59
2018-02-19T20:03:15.193Z,98123.75
2018-02-19T20:05:44.656Z,98117.23
2018-02-19T20:08:14.095Z,98126.58
2018-02-19T20:10:43.442Z,98119.06
2018-02-19T20:13:12.870Z,98127.39
2018-02-19T20:15:42.196Z,98122.66
2018-02-19T20:18:11.476Z,98122.97
2018-02-19T20:20:41.022Z,98124.20
2018-02-19T20:23:11.348Z,98120.22
2018-02-19T20:25:40.759Z,98122.27
2018-02-19T20:28:11.702Z,98121.61
2018-02-19T20:30:41.897Z,98124.77
2018-02-19T20:33:11.876Z,98131.53
2018-02-19T20:35:42.454Z,98129.16
2018-02-19T20:38:11.877Z,98124.08
2018-02-19T20:40:41.437Z,98124.08
2018-02-19T20:43:10.745Z,98122.99
2018-02-19T20:45:40.061Z,98127.84
2018-02-19T20:48:10.480Z,98121.72
2018-02-19T20:50:39.831Z,98121.67
2018-02-19T20:53:10.294Z,98122.17
2018-02-19T20:55:39.973Z,98124.95
2018-02-19T20:58:09.743Z,98125.42
2018-02-19T21:00:39.389Z,98117.62
2018-02-19T21:03:08.738Z,98117.25
2018-02-19T21:05:38.039Z,98114.42
2018-02-19T21:08:07.462Z,98107.19
2018-02-19T21:10:37.732Z,98104.91
2018-02-19T21:13:07.010Z,98105.16
2018-02-19T21:15:36.418Z,98106.42
2018-02-19T21:18:05.727Z,98109.52
2018-02-19T21:20:35.082Z,98106.70
2018-02-19T21:23:05.274Z,98115.10
2018-02-19T21:25:34.615Z,98106.09
2018-02-19T21:28:04.791Z,98107.98
2018-02-19T21:30:34.229Z,98108.05
2018-02-19T21:33:04.378Z,98108.84
2018-02-19T21:35:33.927Z,98098.23
2018-02-19T21:38:03.494Z,98100.41
2018-02-19T21:40:32.945Z,98106.48
2018-02-19T21:43:02.286Z,98094.94
2018-02-19T21:45:31.651Z,98092.51
2018-02-19T21:48:01.020Z,98090.45
2018-02-19T21:50:30.447Z,98083.38
2018-02-19T21:52:59.732Z,98087.78
2018-02-19T21:55:29.101Z,98082.63
2018-02-19T21:57:58.729Z,98079.48
2018-02-19T22:00:28.082Z,98074.63
2018-02-19T22:02:57.227Z,98079.20
2018-02-19T22:05:26.486Z,98076.73
2018-02-19T22:07:57.131Z,98076.66
2018-02-19T22:10:26.389Z,98074.23
2018-02-19T22:12:55.639Z,98084.78
2018-02-19T22:15:24.428Z,98077.65
2018-02-19T22:17:53.631Z,98079.56
2018-02-19T22:20:21.927Z,98083.07
2018-02-19T22:22:50.215Z,98094.05
2018-02-19T22:25:18.495Z,98079.23
2018-02-19T22:27:47.536Z,98092.91
2018-02-19T22:30:15.782Z,98097.16
2018-02-19T22:32:44.059Z,98091.72
2018-02-19T22:35:12.319Z,98095.04
2018-02-19T22:37:41.372Z,98092.88
2018-02-19T22:40:09.634Z,98087.87
2018-02-19T22:42:37.921Z,98091.83
2018-02-19T22:45:06.966Z,98098.52
2018-02-19T22:47:35.983Z,98086.61
2018-02-19T22:50:04.260Z,98087.06
2018-02-19T22:52:32.535Z,98088.44
2018-02-19T22:55:00.799Z,98089.41
2018-02-19T22:57:29.066Z,98082.98
2018-02-19T22:59:57.328Z,98080.20
2018-02-19T23:02:26.377Z,98085.31
2018-02-19T23:04:54.631Z,98089.75
2018-02-19T23:07:22.991Z,98097.98
2018-02-19T23:09:52.024Z,98086.78
2018-02-19T23:12:20.276Z,98084.37
2018-02-19T23:14:48.605Z,98082.27
2018-02-19T23:17:16.862Z,98089.17
2018-02-19T23:19:45.898Z,98083.72
2018-02-19T23:22:14.950Z,98086.55
2018-02-19T23:24:44.739Z,98087.48
2018-02-19T23:27:13.004Z,98087.71
2018-02-19T23:29:41.304Z,98095.02
2018-02-19T23:32:09.584Z,98090.48
2018-02-19T23:34:37.842Z,98087.67
2018-02-19T23:37:06.165Z,98095.09
2018-02-19T23:39:34.444Z,98091.34
2018-02-19T23:42:02.714Z,98094.81
2018-02-19T23:44:30.979Z,98093.84
2018-02-19T23:46:59.242Z,98096.27
2018-02-19T23:49:27.502Z,98093.16
2018-02-19T23:51:57.219Z,98087.53
2018-02-19T23:54:40.385Z,98094.36
2018-02-19T23:57:09.414Z,98089.61
2018-02-19T23:59:37.686Z,98093.96
